sensor_id;sensor_type;location;lat;lon;timestamp;pressure;altitude;pressure_sealevel;temperature;humidity
20889;BME280;10604;51.976;7.594;2023-09-07T00:00:37;101276.41;;;39.48;26.74
20889;BME280;10604;51.976;7.594;2023-09-07T00:03:02;101278.44;;;39.59;26.48
20889;BME280;10604;51.976;7.594;2023-09-07T00:05:29;101273.47;;;39.43;26.98
20889;BME280;10604;51.976;7.594;2023-09-07T00:07:54;101280.56;;;39.64;26.74
20889;BME280;10604;51.976;7.594;2023-09-07T00:10:20;101274.72;;;39.47;26.73
20889;BME280;10604;51.976;7.594;2023-09-07T00:12:46;101281.16;;;39.34;26.80
20889;BME280;10604;51.976;7.594;2023-09-07T00:15:11;101270.94;;;39.35;26.99
20889;BME280;10604;51.976;7.594;2023-09-07T00:17:36;101273.28;;;39.38;26.87
20889;BME280;10604;51.976;7.594;2023-09-07T00:20:02;101267.09;;;39.42;26.59
20889;BME280;10604;51.976;7.594;2023-09-07T00:22:35;101276.47;;;39.35;26.83
20889;BME280;10604;51.976;7.594;2023-09-07T00:25:00;101275.22;;;39.31;27.11
20889;BME280;10604;51.976;7.594;2023-09-07T00:27:25;101276.78;;;39.20;26.67
20889;BME280;10604;51.976;7.594;2023-09-07T00:29:51;101285.41;;;39.37;26.72
20889;BME280;10604;51.976;7.594;2023-09-07T00:32:16;101282.09;;;39.22;26.59
20889;BME280;10604;51.976;7.594;2023-09-07T00:34:41;101277.00;;;39.19;27.10
20889;BME280;10604;51.976;7.594;2023-09-07T00:37:06;101282.53;;;39.12;26.92
20889;BME280;10604;51.976;7.594;2023-09-07T00:39:31;101277.50;;;39.02;27.03
20889;BME280;10604;51.976;7.594;2023-09-07T00:41:57;101283.25;;;39.01;27.09
20889;BME280;10604;51.976;7.594;2023-09-07T00:44:22;101280.03;;;39.04;26.67
20889;BME280;10604;51.976;7.594;2023-09-07T00:46:47;101274.00;;;39.20;26.64
20889;BME280;10604;51.976;7.594;2023-09-07T00:49:13;101276.13;;;39.18;26.54
20889;BME280;10604;51.976;7.594;2023-09-07T00:51:39;101277.09;;;38.92;26.89
20889;BME280;10604;51.976;7.594;2023-09-07T00:54:04;101276.47;;;38.90;27.08
20889;BME280;10604;51.976;7.594;2023-09-07T00:56:30;101272.41;;;38.99;26.84
20889;BME280;10604;51.976;7.594;2023-09-07T00:58:55;101276.50;;;38.84;27.32
20889;BME280;10604;51.976;7.594;2023-09-07T01:01:22;101274.56;;;38.84;27.25
20889;BME280;10604;51.976;7.594;2023-09-07T01:03:48;101278.41;;;38.83;26.91
20889;BME280;10604;51.976;7.594;2023-09-07T01:06:18;101279.19;;;39.03;27.07
20889;BME280;10604;51.976;7.594;2023-09-07T01:08:51;101271.16;;;38.89;26.58
20889;BME280;10604;51.976;7.594;2023-09-07T01:11:17;101276.25;;;38.98;26.40
20889;BME280;10604;51.976;7.594;2023-09-07T01:13:43;101276.28;;;38.85;26.80
20889;BME280;10604;51.976;7.594;2023-09-07T01:16:09;101269.91;;;38.85;26.78
20889;BME280;10604;51.976;7.594;2023-09-07T01:18:35;101269.94;;;38.78;26.71
20889;BME280;10604;51.976;7.594;2023-09-07T01:21:03;101269.44;;;38.94;26.87
20889;BME280;10604;51.976;7.594;2023-09-07T01:23:29;101265.22;;;38.85;26.59
20889;BME280;10604;51.976;7.594;2023-09-07T01:25:54;101264.59;;;38.83;26.67
20889;BME280;10604;51.976;7.594;2023-09-07T01:28:20;101261.81;;;38.96;26.29
20889;BME280;10604;51.976;7.594;2023-09-07T01:30:46;101256.28;;;38.90;26.83
20889;BME280;10604;51.976;7.594;2023-09-07T01:33:11;101257.97;;;38.97;26.09
20889;BME280;10604;51.976;7.594;2023-09-07T01:35:37;101255.06;;;38.79;26.58
20889;BME280;10604;51.976;7.594;2023-09-07T01:38:03;101245.97;;;38.72;26.86
20889;BME280;10604;51.976;7.594;2023-09-07T01:40:28;101244.84;;;38.79;26.54
20889;BME280;10604;51.976;7.594;2023-09-07T01:42:53;101254.66;;;38.75;26.88
20889;BME280;10604;51.976;7.594;2023-09-07T01:45:19;101254.63;;;38.82;26.74
20889;BME280;10604;51.976;7.594;2023-09-07T01:47:44;101247.47;;;38.68;26.89
20889;BME280;10604;51.976;7.594;2023-09-07T01:50:09;101257.66;;;38.61;26.97
20889;BME280;10604;51.976;7.594;2023-09-07T01:52:35;101251.66;;;38.77;26.39
20889;BME280;10604;51.976;7.594;2023-09-07T01:55:00;101250.16;;;38.81;26.66
20889;BME280;10604;51.976;7.594;2023-09-07T01:57:25;101253.44;;;38.65;26.59
20889;BME280;10604;51.976;7.594;2023-09-07T01:59:51;101251.31;;;38.54;26.66
20889;BME280;10604;51.976;7.594;2023-09-07T02:02:16;101258.94;;;38.65;26.47
20889;BME280;10604;51.976;7.594;2023-09-07T02:04:41;101255.97;;;38.60;26.66
20889;BME280;10604;51.976;7.594;2023-09-07T02:07:10;101250.91;;;38.57;26.18
20889;BME280;10604;51.976;7.594;2023-09-07T02:09:35;101254.09;;;38.40;26.70
20889;BME280;10604;51.976;7.594;2023-09-07T02:12:01;101260.25;;;38.43;26.86
20889;BME280;10604;51.976;7.594;2023-09-07T02:14:29;101251.34;;;38.40;26.94
20889;BME280;10604;51.976;7.594;2023-09-07T02:16:54;101251.53;;;38.46;26.77
20889;BME280;10604;51.976;7.594;2023-09-07T02:19:19;101251.53;;;38.46;26.38
20889;BME280;10604;51.976;7.594;2023-09-07T02:21:47;101258.97;;;38.38;26.61
20889;BME280;10604;51.976;7.594;2023-09-07T02:24:14;101256.84;;;38.54;26.15
20889;BME280;10604;51.976;7.594;2023-09-07T02:26:39;101245.41;;;38.44;26.38
20889;BME280;10604;51.976;7.594;2023-09-07T02:29:10;101248.38;;;38.35;26.81
20889;BME280;10604;51.976;7.594;2023-09-07T02:31:35;101252.59;;;38.45;26.03
20889;BME280;10604;51.976;7.594;2023-09-07T02:34:00;101250.91;;;38.44;26.09
20889;BME280;10604;51.976;7.594;2023-09-07T02:36:25;101245.81;;;38.40;26.38
20889;BME280;10604;51.976;7.594;2023-09-07T02:38:50;101239.47;;;38.33;26.54
20889;BME280;10604;51.976;7.594;2023-09-07T02:41:16;101247.09;;;38.38;26.61
20889;BME280;10604;51.976;7.594;2023-09-07T02:43:41;101252.34;;;38.66;26.24
20889;BME280;10604;51.976;7.594;2023-09-07T02:46:06;101247.09;;;38.38;26.17
20889;BME280;10604;51.976;7.594;2023-09-07T02:48:31;101239.88;;;38.30;26.40
20889;BME280;10604;51.976;7.594;2023-09-07T02:50:57;101242.91;;;38.22;26.37
20889;BME280;10604;51.976;7.594;2023-09-07T02:53:23;101243.75;;;38.16;26.42
20889;BME280;10604;51.976;7.594;2023-09-07T02:55:49;101237.81;;;38.13;26.73
20889;BME280;10604;51.976;7.594;2023-09-07T02:58:17;101239.53;;;38.14;26.79
20889;BME280;10604;51.976;7.594;2023-09-07T03:00:43;101239.53;;;38.07;26.55
20889;BME280;10604;51.976;7.594;2023-09-07T03:03:09;101236.78;;;38.07;26.60
20889;BME280;10604;51.976;7.594;2023-09-07T03:05:34;101234.03;;;38.07;26.52
20889;BME280;10604;51.976;7.594;2023-09-07T03:08:00;101237.59;;;38.01;26.68
20889;BME280;10604;51.976;7.594;2023-09-07T03:10:25;101234.19;;;38.25;26.27
20889;BME280;10604;51.976;7.594;2023-09-07T03:12:50;101227.19;;;38.03;26.24
20889;BME280;10604;51.976;7.594;2023-09-07T03:15:16;101234.44;;;38.04;26.58
20889;BME280;10604;51.976;7.594;2023-09-07T03:17:41;101236.97;;;37.99;26.57
20889;BME280;10604;51.976;7.594;2023-09-07T03:20:07;101239.94;;;37.97;26.04
20889;BME280;10604;51.976;7.594;2023-09-07T03:22:41;101239.50;;;37.87;26.41
20889;BME280;10604;51.976;7.594;2023-09-07T03:25:07;101242.88;;;37.96;26.12
20889;BME280;10604;51.976;7.594;2023-09-07T03:27:33;101242.88;;;37.96;26.20
20889;BME280;10604;51.976;7.594;2023-09-07T03:29:58;101242.47;;;38.12;25.95
20889;BME280;10604;51.976;7.594;2023-09-07T03:32:23;101236.97;;;37.86;26.40
20889;BME280;10604;51.976;7.594;2023-09-07T03:34:48;101241.66;;;37.66;26.70
20889;BME280;10604;51.976;7.594;2023-09-07T03:37:14;101240.34;;;37.88;26.15
20889;BME280;10604;51.976;7.594;2023-09-07T03:39:39;101239.94;;;37.78;26.41
20889;BME280;10604;51.976;7.594;2023-09-07T03:42:04;101246.72;;;37.82;26.46
20889;BME280;10604;51.976;7.594;2023-09-07T03:44:29;101243.34;;;37.80;26.35
20889;BME280;10604;51.976;7.594;2023-09-07T03:46:54;101243.31;;;37.73;26.62
20889;BME280;10604;51.976;7.594;2023-09-07T03:49:20;101246.72;;;37.69;26.48
20889;BME280;10604;51.976;7.594;2023-09-07T03:51:45;101247.56;;;37.76;26.63
20889;BME280;10604;51.976;7.594;2023-09-07T03:54:10;101243.31;;;37.60;26.74
20889;BME280;10604;51.976;7.594;2023-09-07T03:56:35;101240.50;;;37.40;26.49
20889;BME280;10604;51.976;7.594;2023-09-07T03:59:01;101245.81;;;37.42;26.81
20889;BME280;10604;51.976;7.594;2023-09-07T04:01:26;101241.41;;;37.74;26.47
20889;BME280;10604;51.976;7.594;2023-09-07T04:03:51;101242.06;;;37.62;26.41
20889;BME280;10604;51.976;7.594;2023-09-07T04:06:16;101240.72;;;37.52;26.57
20889;BME280;10604;51.976;7.594;2023-09-07T04:08:42;101243.72;;;37.50;26.55
20889;BME280;10604;51.976;7.594;2023-09-07T04:11:07;101244.31;;;37.39;26.74
20889;BME280;10604;51.976;7.594;2023-09-07T04:13:32;101246.00;;;37.34;26.66
20889;BME280;10604;51.976;7.594;2023-09-07T04:15:59;101242.00;;;37.36;26.78
20889;BME280;10604;51.976;7.594;2023-09-07T04:18:24;101245.38;;;37.38;26.49
20889;BME280;10604;51.976;7.594;2023-09-07T04:20:49;101242.88;;;37.50;26.59
20889;BME280;10604;51.976;7.594;2023-09-07T04:23:14;101238.59;;;37.34;26.67
20889;BME280;10604;51.976;7.594;2023-09-07T04:25:40;101243.69;;;37.37;26.58
20889;BME280;10604;51.976;7.594;2023-09-07T04:28:05;101243.25;;;37.27;26.72
20889;BME280;10604;51.976;7.594;2023-09-07T04:30:31;101245.59;;;37.43;26.63
20889;BME280;10604;51.976;7.594;2023-09-07T04:32:56;101241.53;;;37.26;26.75
20889;BME280;10604;51.976;7.594;2023-09-07T04:35:26;101244.06;;;37.14;26.62
20889;BME280;10604;51.976;7.594;2023-09-07T04:37:51;101245.38;;;36.77;27.14
20889;BME280;10604;51.976;7.594;2023-09-07T04:40:19;101253.72;;;36.97;27.22
20889;BME280;10604;51.976;7.594;2023-09-07T04:42:44;101250.75;;;36.99;27.06
20889;BME280;10604;51.976;7.594;2023-09-07T04:45:10;101248.31;;;37.23;26.52
20889;BME280;10604;51.976;7.594;2023-09-07T04:47:35;101247.31;;;36.90;27.05
20889;BME280;10604;51.976;7.594;2023-09-07T04:50:02;101240.69;;;37.32;26.49
20889;BME280;10604;51.976;7.594;2023-09-07T04:52:29;101246.63;;;37.16;26.71
20889;BME280;10604;51.976;7.594;2023-09-07T04:54:54;101252.34;;;36.73;27.17
20889;BME280;10604;51.976;7.594;2023-09-07T04:57:19;101250.31;;;36.95;26.84
20889;BME280;10604;51.976;7.594;2023-09-07T04:59:44;101248.66;;;37.01;26.82
20889;BME280;10604;51.976;7.594;2023-09-07T05:02:10;101254.03;;;37.15;26.53
20889;BME280;10604;51.976;7.594;2023-09-07T05:04:36;101254.44;;;37.12;26.65
20889;BME280;10604;51.976;7.594;2023-09-07T05:07:02;101255.50;;;37.24;26.52
20889;BME280;10604;51.976;7.594;2023-09-07T05:09:27;101251.72;;;37.32;26.56
20889;BME280;10604;51.976;7.594;2023-09-07T05:11:54;101253.63;;;37.38;26.30
20889;BME280;10604;51.976;7.594;2023-09-07T05:14:19;101246.47;;;36.90;27.09
20889;BME280;10604;51.976;7.594;2023-09-07T05:16:45;101248.88;;;37.06;26.77
20889;BME280;10604;51.976;7.594;2023-09-07T05:19:10;101246.63;;;37.16;26.96
20889;BME280;10604;51.976;7.594;2023-09-07T05:21:35;101244.94;;;37.28;26.68
20889;BME280;10604;51.976;7.594;2023-09-07T05:26:33;101260.25;;;37.57;26.39
20889;BME280;10604;51.976;7.594;2023-09-07T05:28:58;101249.22;;;37.37;26.86
20889;BME280;10604;51.976;7.594;2023-09-07T05:31:23;101253.03;;;37.49;26.58
20889;BME280;10604;51.976;7.594;2023-09-07T05:33:52;101250.97;;;37.65;26.35
20889;BME280;10604;51.976;7.594;2023-09-07T05:36:17;101259.00;;;37.66;26.68
20889;BME280;10604;51.976;7.594;2023-09-07T05:38:42;101252.66;;;37.79;26.69
20889;BME280;10604;51.976;7.594;2023-09-07T05:41:08;101263.59;;;37.52;26.48
20889;BME280;10604;51.976;7.594;2023-09-07T05:43:33;101262.19;;;37.96;26.34
20889;BME280;10604;51.976;7.594;2023-09-07T05:45:58;101252.63;;;37.59;26.91
20889;BME280;10604;51.976;7.594;2023-09-07T05:48:26;101263.25;;;37.82;26.44
20889;BME280;10604;51.976;7.594;2023-09-07T05:50:55;101264.09;;;37.62;26.78
20889;BME280;10604;51.976;7.594;2023-09-07T05:53:20;101271.31;;;37.63;27.19
20889;BME280;10604;51.976;7.594;2023-09-07T05:55:45;101275.31;;;37.81;26.70
20889;BME280;10604;51.976;7.594;2023-09-07T05:58:10;101271.50;;;37.82;26.83
20889;BME280;10604;51.976;7.594;2023-09-07T06:00:36;101287.84;;;38.16;26.81
20889;BME280;10604;51.976;7.594;2023-09-07T06:03:04;101280.63;;;38.02;26.94
20889;BME280;10604;51.976;7.594;2023-09-07T06:05:29;101282.97;;;37.92;26.78
20889;BME280;10604;51.976;7.594;2023-09-07T06:07:54;101281.06;;;38.25;26.96
20889;BME280;10604;51.976;7.594;2023-09-07T06:10:19;101278.09;;;38.33;26.56
20889;BME280;10604;51.976;7.594;2023-09-07T06:12:45;101287.00;;;38.49;26.71
20889;BME280;10604;51.976;7.594;2023-09-07T06:15:19;101289.41;;;38.96;26.26
20889;BME280;10604;51.976;7.594;2023-09-07T06:17:45;101299.97;;;39.12;26.30
20889;BME280;10604;51.976;7.594;2023-09-07T06:20:10;101296.22;;;38.87;26.03
20889;BME280;10604;51.976;7.594;2023-09-07T06:22:36;101293.56;;;39.19;25.92
20889;BME280;10604;51.976;7.594;2023-09-07T06:25:01;101290.41;;;39.15;25.87
20889;BME280;10604;51.976;7.594;2023-09-07T06:27:26;101293.16;;;39.15;26.13
20889;BME280;10604;51.976;7.594;2023-09-07T06:29:52;101285.69;;;39.60;26.02
20889;BME280;10604;51.976;7.594;2023-09-07T06:32:24;101293.06;;;39.35;26.10
20889;BME280;10604;51.976;7.594;2023-09-07T06:34:49;101293.88;;;39.42;26.22
20889;BME280;10604;51.976;7.594;2023-09-07T06:37:15;101284.91;;;39.46;26.45
20889;BME280;10604;51.976;7.594;2023-09-07T06:39:40;101284.13;;;39.39;26.55
20889;BME280;10604;51.976;7.594;2023-09-07T06:42:08;101283.53;;;39.62;25.98
20889;BME280;10604;51.976;7.594;2023-09-07T06:44:34;101287.41;;;40.11;25.86
20889;BME280;10604;51.976;7.594;2023-09-07T06:46:59;101288.78;;;40.02;25.37
20889;BME280;10604;51.976;7.594;2023-09-07T06:49:28;101293.00;;;40.29;25.67
20889;BME280;10604;51.976;7.594;2023-09-07T06:51:55;101286.88;;;40.45;25.20
20889;BME280;10604;51.976;7.594;2023-09-07T06:54:20;101293.19;;;40.34;25.57
20889;BME280;10604;51.976;7.594;2023-09-07T06:56:45;101292.13;;;40.35;25.35
20889;BME280;10604;51.976;7.594;2023-09-07T06:59:10;101289.34;;;40.53;24.98
20889;BME280;10604;51.976;7.594;2023-09-07T07:01:36;101298.72;;;40.77;25.10
20889;BME280;10604;51.976;7.594;2023-09-07T07:04:01;101292.41;;;40.27;25.63
20889;BME280;10604;51.976;7.594;2023-09-07T07:06:26;101291.94;;;40.91;25.28
20889;BME280;10604;51.976;7.594;2023-09-07T07:08:51;101304.81;;;40.61;25.19
20889;BME280;10604;51.976;7.594;2023-09-07T07:11:17;101301.06;;;40.74;25.61
20889;BME280;10604;51.976;7.594;2023-09-07T07:13:42;101299.38;;;41.27;25.05
20889;BME280;10604;51.976;7.594;2023-09-07T07:16:07;101302.91;;;41.16;25.19
20889;BME280;10604;51.976;7.594;2023-09-07T07:18:33;101302.72;;;41.29;25.03
20889;BME280;10604;51.976;7.594;2023-09-07T07:20:58;101300.13;;;41.34;24.38
20889;BME280;10604;51.976;7.594;2023-09-07T07:23:23;101305.81;;;41.21;24.70
20889;BME280;10604;51.976;7.594;2023-09-07T07:25:52;101305.31;;;40.76;25.60
20889;BME280;10604;51.976;7.594;2023-09-07T07:28:18;101297.84;;;41.73;24.48
20889;BME280;10604;51.976;7.594;2023-09-07T07:30:43;101296.88;;;41.79;24.59
20889;BME280;10604;51.976;7.594;2023-09-07T07:33:08;101295.38;;;42.18;24.58
20889;BME280;10604;51.976;7.594;2023-09-07T07:35:34;101308.16;;;42.66;23.99
20889;BME280;10604;51.976;7.594;2023-09-07T07:38:00;101308.16;;;42.66;23.78
20889;BME280;10604;51.976;7.594;2023-09-07T07:40:25;101306.84;;;42.91;23.82
20889;BME280;10604;51.976;7.594;2023-09-07T07:42:51;101308.31;;;42.59;23.94
20889;BME280;10604;51.976;7.594;2023-09-07T07:45:16;101314.03;;;43.04;23.58
20889;BME280;10604;51.976;7.594;2023-09-07T07:47:44;101310.38;;;43.27;23.44
20889;BME280;10604;51.976;7.594;2023-09-07T07:50:10;101312.38;;;42.91;23.68
20889;BME280;10604;51.976;7.594;2023-09-07T07:52:35;101301.91;;;43.95;22.61
20889;BME280;10604;51.976;7.594;2023-09-07T07:55:01;101302.06;;;43.89;22.63
20889;BME280;10604;51.976;7.594;2023-09-07T07:57:26;101306.69;;;42.86;23.40
20889;BME280;10604;51.976;7.594;2023-09-07T07:59:51;101304.47;;;43.85;22.50
20889;BME280;10604;51.976;7.594;2023-09-07T08:02:16;101314.75;;;43.85;22.89
20889;BME280;10604;51.976;7.594;2023-09-07T08:04:42;101310.41;;;44.39;22.60
20889;BME280;10604;51.976;7.594;2023-09-07T08:07:07;101309.25;;;44.18;22.41
20889;BME280;10604;51.976;7.594;2023-09-07T08:09:33;101309.75;;;44.70;22.46
20889;BME280;10604;51.976;7.594;2023-09-07T08:11:58;101304.41;;;44.30;22.33
20889;BME280;10604;51.976;7.594;2023-09-07T08:14:27;101310.16;;;44.79;21.36
20889;BME280;10604;51.976;7.594;2023-09-07T08:16:53;101307.97;;;45.03;21.90
20889;BME280;10604;51.976;7.594;2023-09-07T08:19:18;101307.41;;;44.62;21.59
20889;BME280;10604;51.976;7.594;2023-09-07T08:21:44;101304.53;;;45.17;21.44
20889;BME280;10604;51.976;7.594;2023-09-07T08:24:10;101313.38;;;45.36;21.51
20889;BME280;10604;51.976;7.594;2023-09-07T08:26:36;101309.19;;;45.87;21.30
20889;BME280;10604;51.976;7.594;2023-09-07T08:29:02;101305.25;;;45.35;21.17
20889;BME280;10604;51.976;7.594;2023-09-07T08:31:32;101307.66;;;45.48;21.51
20889;BME280;10604;51.976;7.594;2023-09-07T08:33:59;101307.75;;;46.17;21.14
20889;BME280;10604;51.976;7.594;2023-09-07T08:36:24;101301.22;;;46.38;20.67
20889;BME280;10604;51.976;7.594;2023-09-07T08:38:53;101301.09;;;45.91;20.98
20889;BME280;10604;51.976;7.594;2023-09-07T08:41:18;101307.41;;;46.50;20.65
20889;BME280;10604;51.976;7.594;2023-09-07T08:43:45;101302.13;;;47.01;20.37
20889;BME280;10604;51.976;7.594;2023-09-07T08:46:15;101298.09;;;46.82;20.11
20889;BME280;10604;51.976;7.594;2023-09-07T08:48:41;101300.06;;;46.91;20.08
20889;BME280;10604;51.976;7.594;2023-09-07T08:51:07;101298.00;;;46.61;20.33
20889;BME280;10604;51.976;7.594;2023-09-07T08:53:32;101299.75;;;46.72;20.34
20889;BME280;10604;51.976;7.594;2023-09-07T08:55:59;101291.81;;;47.27;20.32
20889;BME280;10604;51.976;7.594;2023-09-07T08:58:25;101290.38;;;47.04;20.16
20889;BME280;10604;51.976;7.594;2023-09-07T09:00:50;101294.22;;;46.88;20.07
20889;BME280;10604;51.976;7.594;2023-09-07T09:03:16;101297.25;;;48.04;19.95
20889;BME280;10604;51.976;7.594;2023-09-07T09:05:45;101283.75;;;48.52;19.49
20889;BME280;10604;51.976;7.594;2023-09-07T09:08:11;101293.88;;;47.97;19.51
20889;BME280;10604;51.976;7.594;2023-09-07T09:10:38;101287.13;;;48.39;19.23
20889;BME280;10604;51.976;7.594;2023-09-07T09:13:03;101289.94;;;49.57;17.88
20889;BME280;10604;51.976;7.594;2023-09-07T09:15:29;101295.81;;;49.61;18.56
20889;BME280;10604;51.976;7.594;2023-09-07T09:17:54;101288.31;;;49.51;18.36
20889;BME280;10604;51.976;7.594;2023-09-07T09:20:21;101293.56;;;49.97;17.96
20889;BME280;10604;51.976;7.594;2023-09-07T09:22:47;101289.44;;;49.50;18.06
20889;BME280;10604;51.976;7.594;2023-09-07T09:25:12;101286.31;;;49.08;17.79
20889;BME280;10604;51.976;7.594;2023-09-07T09:27:38;101287.19;;;48.98;18.25
20889;BME280;10604;51.976;7.594;2023-09-07T09:30:03;101285.63;;;50.80;17.32
20889;BME280;10604;51.976;7.594;2023-09-07T09:32:29;101295.69;;;50.63;16.81
20889;BME280;10604;51.976;7.594;2023-09-07T09:34:54;101289.53;;;51.03;17.43
20889;BME280;10604;51.976;7.594;2023-09-07T09:37:20;101287.06;;;50.78;17.23
20889;BME280;10604;51.976;7.594;2023-09-07T09:39:48;101281.25;;;49.93;17.40
20889;BME280;10604;51.976;7.594;2023-09-07T09:42:14;101279.69;;;51.43;16.36
20889;BME280;10604;51.976;7.594;2023-09-07T09:44:40;101292.19;;;52.21;16.25
20889;BME280;10604;51.976;7.594;2023-09-07T09:47:05;101287.59;;;52.52;16.36
20889;BME280;10604;51.976;7.594;2023-09-07T09:49:33;101285.13;;;52.64;16.38
20889;BME280;10604;51.976;7.594;2023-09-07T09:51:58;101280.06;;;52.89;16.26
20889;BME280;10604;51.976;7.594;2023-09-07T09:54:23;101280.28;;;52.78;15.71
20889;BME280;10604;51.976;7.594;2023-09-07T09:56:49;101277.03;;;52.99;15.85
20889;BME280;10604;51.976;7.594;2023-09-07T09:59:14;101278.56;;;53.05;15.78
20889;BME280;10604;51.976;7.594;2023-09-07T10:01:43;101282.25;;;53.41;15.48
20889;BME280;10604;51.976;7.594;2023-09-07T10:04:09;101283.03;;;52.56;15.50
20889;BME280;10604;51.976;7.594;2023-09-07T10:06:35;101276.44;;;52.61;15.98
20889;BME280;10604;51.976;7.594;2023-09-07T10:09:04;101287.84;;;51.77;16.38
20889;BME280;10604;51.976;7.594;2023-09-07T10:11:32;101277.38;;;52.70;15.75
20889;BME280;10604;51.976;7.594;2023-09-07T10:13:58;101275.03;;;52.44;15.57
20889;BME280;10604;51.976;7.594;2023-09-07T10:16:23;101279.53;;;52.32;16.20
20889;BME280;10604;51.976;7.594;2023-09-07T10:18:49;101263.94;;;53.03;15.13
20889;BME280;10604;51.976;7.594;2023-09-07T10:21:14;101264.81;;;52.90;15.75
20889;BME280;10604;51.976;7.594;2023-09-07T10:23:43;101267.09;;;52.88;15.60
20889;BME280;10604;51.976;7.594;2023-09-07T10:26:15;101256.25;;;52.67;14.94
20889;BME280;10604;51.976;7.594;2023-09-07T10:28:41;101265.81;;;53.88;15.51
20889;BME280;10604;51.976;7.594;2023-09-07T10:31:07;101264.41;;;53.54;15.04
20889;BME280;10604;51.976;7.594;2023-09-07T10:33:38;101263.84;;;54.19;15.13
20889;BME280;10604;51.976;7.594;2023-09-07T10:36:03;101264.44;;;55.13;14.41
20889;BME280;10604;51.976;7.594;2023-09-07T10:38:30;101263.72;;;54.02;14.78
20889;BME280;10604;51.976;7.594;2023-09-07T10:40:57;101259.91;;;54.38;14.57
20889;BME280;10604;51.976;7.594;2023-09-07T10:43:23;101254.97;;;54.52;14.67
20889;BME280;10604;51.976;7.594;2023-09-07T10:45:48;101247.66;;;53.00;15.36
20889;BME280;10604;51.976;7.594;2023-09-07T10:48:14;101246.44;;;53.28;15.52
20889;BME280;10604;51.976;7.594;2023-09-07T10:50:42;101248.66;;;54.15;14.63
20889;BME280;10604;51.976;7.594;2023-09-07T10:53:08;101238.59;;;54.88;14.50
20889;BME280;10604;51.976;7.594;2023-09-07T10:55:39;101245.44;;;55.56;14.47
20889;BME280;10604;51.976;7.594;2023-09-07T10:58:05;101252.75;;;55.23;14.48
20889;BME280;10604;51.976;7.594;2023-09-07T11:00:30;101241.63;;;54.44;14.13
20889;BME280;10604;51.976;7.594;2023-09-07T11:02:55;101242.09;;;55.02;14.21
20889;BME280;10604;51.976;7.594;2023-09-07T11:05:20;101238.06;;;54.21;13.70
20889;BME280;10604;51.976;7.594;2023-09-07T11:07:46;101224.41;;;54.71;15.17
20889;BME280;10604;51.976;7.594;2023-09-07T11:10:11;101240.47;;;56.08;14.17
20889;BME280;10604;51.976;7.594;2023-09-07T11:12:37;101229.97;;;55.19;14.15
20889;BME280;10604;51.976;7.594;2023-09-07T11:15:03;101227.72;;;56.23;13.60
20889;BME280;10604;51.976;7.594;2023-09-07T11:17:29;101232.41;;;55.72;13.34
20889;BME280;10604;51.976;7.594;2023-09-07T11:19:55;101239.06;;;55.76;13.58
20889;BME280;10604;51.976;7.594;2023-09-07T11:22:20;101233.19;;;55.99;13.62
20889;BME280;10604;51.976;7.594;2023-09-07T11:24:47;101228.78;;;54.86;13.33
20889;BME280;10604;51.976;7.594;2023-09-07T11:27:13;101221.44;;;54.76;13.46
20889;BME280;10604;51.976;7.594;2023-09-07T11:29:38;101225.47;;;55.27;14.05
20889;BME280;10604;51.976;7.594;2023-09-07T11:32:07;101225.94;;;55.03;13.56
20889;BME280;10604;51.976;7.594;2023-09-07T11:34:33;101217.22;;;56.15;13.22
20889;BME280;10604;51.976;7.594;2023-09-07T11:36:58;101213.09;;;56.71;13.26
20889;BME280;10604;51.976;7.594;2023-09-07T11:39:27;101225.09;;;54.77;13.96
20889;BME280;10604;51.976;7.594;2023-09-07T11:41:53;101224.47;;;55.40;13.78
20889;BME280;10604;51.976;7.594;2023-09-07T11:44:19;101208.13;;;54.85;13.93
20889;BME280;10604;51.976;7.594;2023-09-07T11:46:45;101208.78;;;55.17;13.80
20889;BME280;10604;51.976;7.594;2023-09-07T11:49:10;101209.44;;;55.48;13.52
20889;BME280;10604;51.976;7.594;2023-09-07T11:51:35;101210.34;;;53.70;13.95
20889;BME280;10604;51.976;7.594;2023-09-07T11:54:04;101210.78;;;54.25;13.94
20889;BME280;10604;51.976;7.594;2023-09-07T11:56:32;101203.56;;;54.10;14.44
20889;BME280;10604;51.976;7.594;2023-09-07T11:58:57;101206.63;;;55.05;13.48
20889;BME280;10604;51.976;7.594;2023-09-07T12:01:22;101201.59;;;56.09;12.62
20889;BME280;10604;51.976;7.594;2023-09-07T12:03:49;101203.94;;;55.52;12.80
20889;BME280;10604;51.976;7.594;2023-09-07T12:06:14;101202.94;;;55.56;12.70
20889;BME280;10604;51.976;7.594;2023-09-07T12:08:41;101196.66;;;55.89;12.97
20889;BME280;10604;51.976;7.594;2023-09-07T12:11:07;101193.97;;;56.01;12.57
20889;BME280;10604;51.976;7.594;2023-09-07T12:13:32;101200.22;;;56.94;12.51
20889;BME280;10604;51.976;7.594;2023-09-07T12:15:58;101195.91;;;56.88;12.81
20889;BME280;10604;51.976;7.594;2023-09-07T12:18:23;101188.78;;;56.82;12.67
20889;BME280;10604;51.976;7.594;2023-09-07T12:20:49;101199.69;;;55.84;12.73
20889;BME280;10604;51.976;7.594;2023-09-07T12:23:14;101192.16;;;57.17;12.88
20889;BME280;10604;51.976;7.594;2023-09-07T12:25:39;101186.28;;;55.29;13.31
20889;BME280;10604;51.976;7.594;2023-09-07T12:28:04;101189.78;;;56.36;13.18
20889;BME280;10604;51.976;7.594;2023-09-07T12:30:30;101188.47;;;55.49;12.84
20889;BME280;10604;51.976;7.594;2023-09-07T12:32:55;101197.06;;;55.61;12.20
20889;BME280;10604;51.976;7.594;2023-09-07T12:35:20;101188.34;;;55.84;12.36
20889;BME280;10604;51.976;7.594;2023-09-07T12:37:46;101190.47;;;55.23;12.76
20889;BME280;10604;51.976;7.594;2023-09-07T12:40:11;101181.78;;;55.45;12.97
20889;BME280;10604;51.976;7.594;2023-09-07T12:42:41;101180.56;;;55.63;12.38
20889;BME280;10604;51.976;7.594;2023-09-07T12:45:07;101178.06;;;56.88;12.47